Time;durP1;ratioP1;P1;durP2;ratioP2;P2;SDS_P1;SDS_P2;PMS_P1;PMS_P2;Temp;Humidity;BMP_temperature;BMP_pressure;BME280_temperature;BME280_humidity;BME280_pressure;Samples;Min_cycle;Max_cycle;Signal;HPM_P1;HPM_P2
2022/10/30 00:01:50;;;;;;;72.47;68.40;;;;;;;15.85;74.67;101512.03;5025257;27;102226;-53
2022/10/30 00:04:16;;;;;;;73.70;69.88;;;;;;;15.87;74.15;101514.50;5034453;27;102406;-53
2022/10/30 00:06:43;;;;;;;69.45;65.80;;;;;;;15.86;74.58;101501.88;5035711;27;102285;-52
2022/10/30 00:09:10;;;;;;;71.72;67.93;;;;;;;15.86;74.22;101501.88;5029761;27;103910;-53
2022/10/30 00:11:39;;;;;;;73.10;69.25;;;;;;;15.86;74.70;101501.88;5035151;27;102189;-52
2022/10/30 00:14:05;;;;;;;77.10;73.10;;;;;;;15.85;74.89;101489.25;5020399;27;102374;-53
2022/10/30 00:16:31;;;;;;;74.45;70.55;;;;;;;15.85;74.39;101498.31;5015425;28;102385;-53
2022/10/30 00:18:58;;;;;;;73.20;69.30;;;;;;;15.86;74.45;101497.19;5013113;28;103988;-53
2022/10/30 00:21:27;;;;;;;73.25;69.35;;;;;;;15.86;74.29;101502.69;5014706;28;102269;-53
2022/10/30 00:23:53;;;;;;;68.53;64.78;;;;;;;15.86;74.74;101501.88;5014325;28;102530;-53
2022/10/30 00:26:21;;;;;;;74.93;70.97;;;;;;;15.86;74.31;101507.38;5020273;27;102354;-53
2022/10/30 00:28:50;;;;;;;73.60;69.53;;;;;;;15.84;74.40;101510.41;5029738;27;104131;-53
2022/10/30 00:31:17;;;;;;;75.10;71.20;;;;;;;15.85;74.31;101511.22;5034354;27;102301;-53
2022/10/30 00:33:48;;;;;;;64.63;61.25;;;;;;;15.86;74.29;101512.84;5033655;27;102610;-52
2022/10/30 00:36:15;;;;;;;74.15;70.13;;;;;;;15.86;74.38;101501.88;5030881;27;102475;-53
2022/10/30 00:38:41;;;;;;;74.95;70.97;;;;;;;15.85;74.33;101498.31;5027575;27;104111;-53
2022/10/30 00:41:13;;;;;;;72.72;68.93;;;;;;;15.85;74.18;101503.00;5014442;28;102250;-53
2022/10/30 00:43:40;;;;;;;72.72;68.78;;;;;;;15.85;74.56;101505.72;5002169;28;102348;-53
2022/10/30 00:46:15;;;;;;;77.10;72.97;;;;;;;15.85;74.30;101513.97;5007748;28;102283;-52
2022/10/30 00:48:44;;;;;;;73.53;69.63;;;;;;;15.85;74.10;101516.72;4995252;28;104076;-52
2022/10/30 00:51:12;;;;;;;70.50;66.78;;;;;;;15.85;74.24;101514.78;4994408;28;102611;-53
2022/10/30 00:53:39;;;;;;;68.80;65.10;;;;;;;15.86;74.10;101523.84;5008659;28;102513;-53
2022/10/30 00:56:08;;;;;;;73.28;69.40;;;;;;;15.86;74.34;101512.84;5012025;28;102186;-53
2022/10/30 00:58:39;;;;;;;75.03;71.13;;;;;;;15.84;74.16;101504.09;5005358;28;104373;-52
2022/10/30 01:01:13;;;;;;;74.78;70.80;;;;;;;15.84;74.38;101499.44;5013335;28;104023;-53
2022/10/30 01:03:40;;;;;;;75.35;71.25;;;;;;;15.85;74.21;101492.00;5011268;28;101996;-53
2022/10/30 01:06:16;;;;;;;74.68;70.75;;;;;;;15.84;74.45;101482.16;4994869;28;102369;-53
2022/10/30 01:08:43;;;;;;;69.97;66.30;;;;;;;15.85;74.77;101487.34;4996502;28;104049;-53
2022/10/30 01:11:11;;;;;;;71.75;68.03;;;;;;;15.84;74.84;101482.97;5007970;28;102404;-53
2022/10/30 01:13:41;;;;;;;70.80;67.15;;;;;;;15.85;74.49;101483.78;4993766;28;102451;-53
2022/10/30 01:16:31;;;;;;;75.65;71.68;;;;;;;15.85;74.34;101478.28;4994916;28;102090;-53
2022/10/30 01:19:06;;;;;;;69.65;65.82;;;;;;;15.84;74.79;101477.47;4993052;28;103877;-53
2022/10/30 01:21:47;;;;;;;67.03;63.47;;;;;;;15.84;74.46;101477.47;4993401;28;101973;-53
2022/10/30 01:24:30;;;;;;;67.30;63.63;;;;;;;15.85;74.47;101467.31;5001109;28;102432;-53
2022/10/30 01:27:13;;;;;;;74.78;70.93;;;;;;;15.85;74.31;101461.81;5000444;28;102696;-53
2022/10/30 01:29:49;;;;;;;79.85;75.63;;;;;;;15.85;74.64;101461.81;5008237;28;104163;-53
2022/10/30 01:32:35;;;;;;;73.10;69.30;;;;;;;15.84;74.56;101452.78;5013886;28;102286;-52
2022/10/30 01:35:07;;;;;;;72.85;68.88;;;;;;;15.85;74.30;101450.84;5012586;28;102251;-53
2022/10/30 01:37:38;;;;;;;78.28;74.15;;;;;;;15.85;74.71;101450.84;4997399;28;102541;-52
2022/10/30 01:40:10;;;;;;;79.63;75.40;;;;;;;15.85;74.37;101442.59;5010153;28;104185;-53
2022/10/30 01:42:46;;;;;;;76.32;72.40;;;;;;;15.84;74.79;101444.53;5004545;28;102232;-53
2022/10/30 01:45:16;;;;;;;68.78;65.10;;;;;;;15.85;74.46;101450.84;5013453;27;102422;-53
2022/10/30 01:47:54;;;;;;;71.35;67.60;;;;;;;15.84;74.43;101439.03;5032432;27;102641;-52
2022/10/30 01:50:32;;;;;;;73.97;70.03;;;;;;;15.84;74.26;101444.53;5032562;27;103930;-53
2022/10/30 01:53:08;;;;;;;71.07;67.10;;;;;;;15.84;74.63;101439.03;5031744;27;102499;-53
2022/10/30 01:55:47;;;;;;;70.40;66.72;;;;;;;15.85;74.65;101434.38;5013078;27;102294;-53
2022/10/30 01:58:21;;;;;;;73.55;69.75;;;;;;;15.84;74.52;101433.56;5006318;28;102440;-53
2022/10/30 02:00:55;;;;;;;68.25;64.70;;;;;;;15.84;74.40;101432.75;4995141;28;103852;-52
2022/10/30 02:03:24;;;;;;;80.97;76.82;;;;;;;15.85;74.72;101429.69;4993413;28;102407;-53
2022/10/30 02:05:53;;;;;;;71.38;67.63;;;;;;;15.86;74.31;101430.50;4992416;28;102367;-53
2022/10/30 02:08:20;;;;;;;67.53;63.97;;;;;;;15.85;74.50;101432.44;4994288;28;102501;-53
2022/10/30 02:10:49;;;;;;;73.70;69.90;;;;;;;15.84;74.73;101432.75;4997453;28;104001;-53
2022/10/30 02:13:16;;;;;;;74.60;70.65;;;;;;;15.85;74.47;101434.38;5012531;28;102631;-53
2022/10/30 02:15:46;;;;;;;66.57;63.17;;;;;;;15.84;74.48;101443.72;5013167;28;102290;-52
2022/10/30 02:18:14;;;;;;;71.25;67.47;;;;;;;15.84;74.79;101435.50;4999291;28;102619;-54
2022/10/30 02:20:42;;;;;;;69.15;65.43;;;;;;;15.83;74.74;101431.09;4992256;28;103792;-53
2022/10/30 02:23:15;;;;;;;;;;;;;;;15.83;74.59;101417.34;4994096;28;102263;-53
2022/10/30 02:25:42;;;;;;;73.97;70.18;;;;;;;15.84;74.73;101419.03;5012623;28;102512;-53
2022/10/30 02:28:09;;;;;;;70.63;66.93;;;;;;;15.85;74.27;101417.91;4995769;28;102300;-53
2022/10/30 02:30:39;;;;;;;71.10;67.45;;;;;;;15.85;74.47;101428.88;5013095;28;103888;-52
2022/10/30 02:33:06;;;;;;;71.10;67.30;;;;;;;15.84;74.66;101414.34;5013411;28;102493;-53
2022/10/30 02:35:34;;;;;;;73.55;69.60;;;;;;;15.84;74.42;101405.28;5011530;28;102222;-53
2022/10/30 02:38:02;;;;;;;74.68;70.72;;;;;;;15.84;74.64;101399.81;5014483;28;102410;-52
2022/10/30 02:40:29;;;;;;;;;;;;;;;15.84;74.28;101416.28;5013816;28;103895;-53
2022/10/30 02:42:56;;;;;;;67.80;64.15;;;;;;;15.84;74.78;101413.53;5012960;28;102340;-53
2022/10/30 02:45:22;;;;;;;72.78;68.97;;;;;;;15.85;74.80;101404.19;5012348;28;102313;-53
2022/10/30 02:47:49;;;;;;;66.38;62.88;;;;;;;15.84;74.27;101410.78;5012642;28;102621;-52
2022/10/30 02:50:16;;;;;;;71.45;67.68;;;;;;;15.85;74.64;101404.19;5010967;28;104163;-53
2022/10/30 02:52:43;;;;;;;66.35;62.95;;;;;;;15.84;74.37;101406.09;5008913;28;102278;-53
2022/10/30 02:55:11;;;;;;;76.10;72.13;;;;;;;15.84;74.57;101417.09;5002044;28;102414;-53
2022/10/30 02:57:38;;;;;;;69.13;65.47;;;;;;;15.84;74.57;101405.28;4998796;28;102250;-53
2022/10/30 03:00:06;;;;;;;73.93;70.00;;;;;;;15.84;74.81;101408.03;5011961;28;104588;-53
2022/10/30 03:02:37;;;;;;;77.72;73.70;;;;;;;15.84;74.40;101394.31;5012540;27;102193;-53
2022/10/30 03:05:04;;;;;;;69.55;65.88;;;;;;;15.85;74.52;101395.94;5011692;28;102575;-53
2022/10/30 03:07:30;;;;;;;73.03;69.28;;;;;;;15.85;74.80;101390.47;5013480;27;102161;-53
2022/10/30 03:09:57;;;;;;;72.72;68.95;;;;;;;15.83;74.32;101387.16;4995236;28;103931;-53
2022/10/30 03:12:25;;;;;;;73.05;69.13;;;;;;;15.83;74.81;101392.66;4996092;28;102567;-52
2022/10/30 03:14:52;;;;;;;80.33;76.23;;;;;;;15.85;74.78;101393.19;4996352;28;102172;-53
2022/10/30 03:17:19;;;;;;;72.57;68.85;;;;;;;15.84;74.65;101388.81;4998996;28;102259;-53
2022/10/30 03:19:50;;;;;;;70.35;66.63;;;;;;;15.83;74.56;101393.50;5006893;28;103936;-53
2022/10/30 03:22:19;;;;;;;69.70;66.07;;;;;;;15.83;74.47;101392.66;4996404;28;102203;-52
2022/10/30 03:24:46;;;;;;;70.18;66.43;;;;;;;15.84;74.25;101394.31;4995884;28;102268;-53
2022/10/30 03:27:13;;;;;;;72.15;68.38;;;;;;;15.83;74.35;101390.75;4997411;28;102569;-53
2022/10/30 03:29:40;;;;;;;71.63;67.82;;;;;;;15.83;74.68;101389.91;4998487;28;103993;-53
2022/10/30 03:32:09;;;;;;;72.30;68.53;;;;;;;15.84;74.50;101394.31;5011782;28;102171;-52
2022/10/30 03:34:36;;;;;;;70.32;66.65;;;;;;;15.83;74.80;101381.69;5013641;28;103063;-53
2022/10/30 03:37:03;;;;;;;71.18;67.43;;;;;;;15.84;74.37;101386.09;5006043;28;102264;-52
2022/10/30 03:39:30;;;;;;;70.65;66.95;;;;;;;15.82;74.42;101391.84;5000394;28;103879;-53
2022/10/30 03:41:57;;;;;;;71.32;67.65;;;;;;;15.83;74.51;101382.53;5015315;28;102463;-53
2022/10/30 03:44:24;;;;;;;75.55;71.65;;;;;;;15.83;74.83;101376.19;5015484;28;102403;-53
2022/10/30 03:46:52;;;;;;;73.05;69.32;;;;;;;15.84;74.72;101377.84;5018069;28;102139;-53
2022/10/30 03:49:18;;;;;;;67.45;63.97;;;;;;;15.84;74.40;101386.09;5010143;28;104006;-52
2022/10/30 03:51:45;;;;;;;72.95;69.07;;;;;;;15.83;74.80;101382.53;4999664;28;102157;-53
2022/10/30 03:54:11;;;;;;;78.05;73.97;;;;;;;15.84;74.67;101380.59;5014684;28;102401;-53
2022/10/30 03:56:39;;;;;;;69.97;66.30;;;;;;;15.84;74.83;101378.66;5016928;28;102170;-53
2022/10/30 03:59:06;;;;;;;74.00;70.15;;;;;;;15.84;74.65;101386.09;5015059;28;104359;-53
2022/10/30 04:01:33;;;;;;;72.65;68.90;;;;;;;15.84;74.67;101388.81;5003536;28;102054;-52
2022/10/30 04:04:01;;;;;;;74.30;70.43;;;;;;;15.84;74.54;101384.16;5015324;28;101991;-52
2022/10/30 04:06:28;;;;;;;73.63;69.80;;;;;;;15.83;74.85;101387.16;5016314;28;102237;-53
2022/10/30 04:08:54;;;;;;;72.50;68.63;;;;;;;15.84;74.73;101377.84;5014682;28;103941;-53
2022/10/30 04:11:21;;;;;;;70.20;66.50;;;;;;;15.85;74.36;101374.00;5013576;28;103646;-52
2022/10/30 04:13:48;;;;;;;70.05;66.43;;;;;;;15.84;74.76;101366.88;5000005;28;102351;-52
2022/10/30 04:16:15;;;;;;;71.03;67.35;;;;;;;15.84;74.78;101380.59;4998894;28;102268;-53
2022/10/30 04:18:42;;;;;;;68.57;64.97;;;;;;;15.84;74.64;101380.59;4994662;28;103939;-53
2022/10/30 04:21:10;;;;;;;67.05;63.50;;;;;;;15.83;74.38;101370.69;4995155;28;102042;-53
2022/10/30 04:23:37;;;;;;;76.47;72.57;;;;;;;15.83;74.45;101373.44;4995791;28;102360;-52
2022/10/30 04:26:04;;;;;;;79.07;74.95;;;;;;;15.84;74.45;101377.84;4994985;28;102532;-52
2022/10/30 04:28:30;;;;;;;72.55;68.78;;;;;;;15.83;74.75;101370.69;4994704;28;103891;-53
2022/10/30 04:30:56;;;;;;;76.55;72.45;;;;;;;15.84;74.85;101372.34;4995746;28;102466;-53
2022/10/30 04:33:23;;;;;;;68.00;64.38;;;;;;;15.84;74.86;101361.38;4995095;28;102342;-53
2022/10/30 04:35:50;;;;;;;73.15;69.38;;;;;;;15.83;74.61;101366.06;4996989;28;102599;-53
2022/10/30 04:38:18;;;;;;;74.15;70.25;;;;;;;15.83;74.65;101368.81;4998072;28;104186;-53
2022/10/30 04:40:48;;;;;;;70.60;66.90;;;;;;;15.83;74.84;101359.72;5015459;28;102827;-53
2022/10/30 04:43:14;;;;;;;82.28;77.95;;;;;;;15.83;74.34;101365.22;5010815;28;102675;-53
2022/10/30 04:45:41;;;;;;;73.00;69.20;;;;;;;15.83;74.85;101365.22;5017010;28;102410;-53
2022/10/30 04:48:12;;;;;;;72.20;68.38;;;;;;;15.83;74.42;101376.19;5011725;28;103946;-53
2022/10/30 04:50:40;;;;;;;69.35;65.72;;;;;;;15.84;74.59;101377.84;4998460;28;102907;-53
2022/10/30 04:53:11;;;;;;;68.53;64.93;;;;;;;15.84;74.78;101383.34;4994916;28;102527;-53
2022/10/30 04:55:38;;;;;;;76.00;72.00;;;;;;;15.83;74.47;101379.78;4996996;28;102338;-53
2022/10/30 04:58:06;;;;;;;78.47;74.38;;;;;;;15.85;74.60;101374.00;4995217;28;104088;-53
2022/10/30 05:00:33;;;;;;;68.00;64.38;;;;;;;15.83;74.90;101370.69;4997515;28;102245;-53
2022/10/30 05:03:00;;;;;;;76.38;72.47;;;;;;;15.82;74.77;101380.06;5014746;28;102141;-53
2022/10/30 05:05:27;;;;;;;75.43;71.40;;;;;;;15.84;74.74;101389.66;5014646;28;102344;-53
2022/10/30 05:07:55;;;;;;;76.90;72.90;;;;;;;15.83;74.70;101384.44;5014116;28;104103;-52
2022/10/30 05:10:22;;;;;;;72.93;69.00;;;;;;;15.84;74.49;101388.81;5018685;27;102237;-53
2022/10/30 05:12:53;;;;;;;;;;;;;;;15.83;74.81;101389.91;5035933;27;102112;-53
2022/10/30 05:15:20;;;;;;;74.00;70.13;;;;;;;15.85;74.72;101379.47;5036987;27;102499;-52
2022/10/30 05:17:51;;;;;;;67.05;63.50;;;;;;;15.83;74.70;101382.53;5034709;27;104096;-53
2022/10/30 05:20:17;;;;;;;75.38;71.40;;;;;;;15.83;74.87;101376.19;5029651;27;102429;-53
2022/10/30 05:22:53;;;;;;;79.55;75.43;;;;;;;15.84;74.49;101377.84;5020332;27;102498;-53
2022/10/30 05:25:19;;;;;;;73.75;69.95;;;;;;;15.83;74.41;101376.19;5030538;27;102502;-53
2022/10/30 05:27:45;;;;;;;74.05;70.18;;;;;;;15.84;74.41;101386.09;5022483;27;103636;-52
2022/10/30 05:30:14;;;;;;;72.53;68.80;;;;;;;15.83;74.96;101379.78;5016469;27;102158;-53
2022/10/30 05:32:40;;;;;;;70.53;66.67;;;;;;;15.84;74.69;101369.63;5031676;27;102663;-53
2022/10/30 05:35:07;;;;;;;73.15;69.30;;;;;;;15.84;74.91;101377.84;5034871;27;102083;-53
2022/10/30 05:37:34;;;;;;;75.35;71.45;;;;;;;15.84;74.51;101389.66;5027466;27;103977;-52
2022/10/30 05:40:01;;;;;;;75.55;71.60;;;;;;;15.84;74.81;101386.91;5018087;27;102457;-53
2022/10/30 05:42:28;;;;;;;76.40;72.32;;;;;;;15.83;74.41;101392.66;5014006;28;102272;-52
2022/10/30 05:44:54;;;;;;;78.53;74.40;;;;;;;15.84;74.88;101394.31;5029664;27;105071;-53
2022/10/30 05:47:22;;;;;;;73.57;69.78;;;;;;;15.85;74.42;101394.00;5025700;27;103921;-53
2022/10/30 05:49:50;;;;;;;66.35;62.92;;;;;;;15.84;74.93;101395.13;5032351;27;102311;-52
2022/10/30 05:52:17;;;;;;;71.38;67.63;;;;;;;15.84;74.60;101399.81;5032933;27;102623;-53
2022/10/30 05:54:44;;;;;;;76.78;72.70;;;;;;;15.84;74.66;101395.13;5030410;27;102194;-53
2022/10/30 05:57:10;;;;;;;78.70;74.68;;;;;;;15.85;74.58;101395.94;5012805;28;103939;-53
2022/10/30 05:59:37;;;;;;;76.38;72.35;;;;;;;15.85;74.70;101417.91;5010580;28;103889;-53
2022/10/30 06:02:03;;;;;;;71.70;67.80;;;;;;;15.84;74.94;101402.56;5011882;28;102237;-53
2022/10/30 06:04:31;;;;;;;75.18;71.28;;;;;;;15.84;74.46;101405.28;5000176;28;102608;-53
2022/10/30 06:06:57;;;;;;;75.95;72.05;;;;;;;15.85;74.44;101406.91;4995508;28;104072;-53
2022/10/30 06:09:24;;;;;;;75.03;71.10;;;;;;;15.85;74.48;101406.91;5007407;28;102372;-53
2022/10/30 06:11:52;;;;;;;75.05;71.20;;;;;;;15.85;74.75;101417.91;5009864;27;102483;-52
2022/10/30 06:14:19;;;;;;;67.03;63.50;;;;;;;15.85;74.96;101409.66;5028918;27;102389;-53
2022/10/30 06:16:48;;;;;;;74.18;70.35;;;;;;;15.85;74.48;101401.44;5012820;28;104099;-53
2022/10/30 06:19:15;;;;;;;76.32;72.40;;;;;;;15.85;74.87;101406.91;5013844;28;102281;-53
2022/10/30 06:21:43;;;;;;;67.53;63.97;;;;;;;15.85;74.87;101399.50;5014151;28;102221;-53
2022/10/30 06:24:14;;;;;;;79.53;75.32;;;;;;;15.85;74.56;101393.19;5011140;28;102400;-52
2022/10/30 06:26:40;;;;;;;75.95;72.05;;;;;;;15.86;74.89;101397.56;4996262;28;103844;-53
2022/10/30 06:29:07;;;;;;;74.53;70.57;;;;;;;15.85;74.72;101391.28;5014269;28;102028;-53
2022/10/30 06:31:34;;;;;;;73.47;69.65;;;;;;;15.85;74.81;101379.47;5013161;28;102319;-53
2022/10/30 06:34:01;;;;;;;71.72;67.85;;;;;;;15.85;74.93;101379.47;5012316;28;102158;-53
2022/10/30 06:36:28;;;;;;;72.32;68.55;;;;;;;15.86;74.62;101378.34;5012937;28;103852;-53
2022/10/30 06:38:55;;;;;;;70.05;66.43;;;;;;;15.86;74.91;101381.09;5019382;27;103139;-53
2022/10/30 06:41:22;;;;;;;71.00;67.27;;;;;;;15.85;74.70;101379.47;5003910;28;102552;-53
2022/10/30 06:43:49;;;;;;;69.10;65.43;;;;;;;15.85;74.75;101379.47;5010931;28;103622;-53
2022/10/30 06:46:15;;;;;;;74.38;70.22;;;;;;;15.86;74.68;101376.44;5017343;28;104003;-53
2022/10/30 06:48:42;;;;;;;78.38;74.30;;;;;;;15.86;74.70;101381.09;5008656;28;103023;-53
2022/10/30 06:51:08;;;;;;;81.18;76.93;;;;;;;15.87;74.73;101382.75;5016235;28;102608;-53
2022/10/30 06:53:35;;;;;;;72.43;68.60;;;;;;;15.87;74.43;101374.53;5017500;28;102282;-53
2022/10/30 06:56:03;;;;;;;74.63;70.70;;;;;;;15.87;74.53;101369.03;5016900;28;103864;-53
2022/10/30 06:58:30;;;;;;;70.03;66.38;;;;;;;15.87;74.87;101377.28;5008266;28;102435;-53
2022/10/30 07:00:59;;;;;;;72.53;68.78;;;;;;;15.88;74.52;101381.66;5009191;28;102095;-53
2022/10/30 07:03:26;;;;;;;78.60;74.57;;;;;;;15.88;74.46;101381.66;5007214;28;102162;-53
2022/10/30 07:05:52;;;;;;;74.03;70.13;;;;;;;15.88;74.85;101373.41;5007363;28;104320;-53
2022/10/30 07:08:19;;;;;;;71.50;67.80;;;;;;;15.88;74.55;101362.44;5015611;28;102045;-53
2022/10/30 07:10:45;;;;;;;79.75;75.63;;;;;;;15.90;75.11;101364.88;5016261;28;102061;-53
2022/10/30 07:13:13;;;;;;;71.07;67.32;;;;;;;15.89;74.93;101369.53;5002642;28;102173;-52
2022/10/30 07:15:42;;;;;;;75.43;71.40;;;;;;;15.91;74.58;101372.03;5014909;28;108352;-53
2022/10/30 07:18:09;;;;;;;77.88;73.80;;;;;;;15.92;74.81;101362.66;5016676;28;102050;-53
2022/10/30 07:20:38;;;;;;;72.63;68.82;;;;;;;15.92;74.52;101368.97;5017930;27;102210;-53
2022/10/30 07:23:04;;;;;;;77.25;73.15;;;;;;;15.93;74.72;101365.09;5038924;27;102138;-53
2022/10/30 07:25:31;;;;;;;71.80;68.00;;;;;;;15.93;74.34;101370.59;5035070;27;104066;-53
2022/10/30 07:27:58;;;;;;;72.00;68.22;;;;;;;15.92;74.17;101379.94;5033145;27;102293;-53
2022/10/30 07:30:26;;;;;;;78.07;74.05;;;;;;;15.92;74.42;101377.22;5018684;28;102198;-53
2022/10/30 07:32:57;;;;;;;;;;;;;;;15.93;74.31;101380.75;5025028;28;102271;-53
2022/10/30 07:35:23;;;;;;;71.35;67.53;;;;;;;15.93;74.41;101376.09;5016166;28;103839;-53
2022/10/30 07:37:50;;;;;;;68.28;64.57;;;;;;;15.92;74.34;101371.72;5017712;28;102139;-53
2022/10/30 07:40:16;;;;;;;70.15;66.20;;;;;;;15.92;74.24;101363.47;5035448;27;102833;-53
2022/10/30 07:42:43;;;;;;;76.00;72.10;;;;;;;15.93;74.51;101365.09;5027234;27;102377;-53
2022/10/30 07:45:10;;;;;;;81.10;76.78;;;;;;;15.92;74.34;101365.41;5019737;28;103852;-53
2022/10/30 07:47:40;;;;;;;69.00;65.18;;;;;;;15.93;73.84;101367.03;5036565;27;102371;-53
2022/10/30 07:50:07;;;;;;;70.32;66.47;;;;;;;15.94;73.88;101377.75;5029410;27;102184;-53
2022/10/30 07:52:34;;;;;;;74.97;70.93;;;;;;;15.92;74.22;101371.72;5034306;27;102340;-53
2022/10/30 07:55:00;;;;;;;69.63;65.80;;;;;;;15.93;74.01;101376.09;5036245;27;103950;-52
2022/10/30 07:57:30;;;;;;;65.88;62.38;;;;;;;15.92;74.00;101379.13;5026852;27;102408;-53
2022/10/30 07:59:56;;;;;;;68.18;64.50;;;;;;;15.93;74.20;101365.09;5030949;27;102257;-53
2022/10/30 08:02:23;;;;;;;69.20;65.45;;;;;;;15.94;74.27;101361.28;5017166;27;102521;-56
2022/10/30 08:04:50;;;;;;;69.47;65.68;;;;;;;15.93;73.90;101361.53;5026552;27;103901;-52
2022/10/30 08:07:18;;;;;;;72.57;68.68;;;;;;;15.95;74.08;101362.91;5026160;27;102207;-52
2022/10/30 08:09:46;;;;;;;74.35;70.15;;;;;;;15.93;73.98;101365.09;5022770;28;102536;-53
2022/10/30 08:12:13;;;;;;;66.05;62.47;;;;;;;15.92;74.01;101355.25;5027696;28;102598;-53
2022/10/30 08:14:39;;;;;;;71.05;67.05;;;;;;;15.92;74.05;101349.75;5021841;27;103906;-53
2022/10/30 08:17:09;;;;;;;66.03;62.30;;;;;;;15.93;73.97;101353.31;5015092;28;102438;-53
2022/10/30 08:19:37;;;;;;;58.10;54.90;;;;;;;15.93;74.24;101348.63;5011525;28;102335;-53
2022/10/30 08:22:09;;;;;;;76.53;72.37;;;;;;;15.94;74.10;101355.78;4997140;28;102178;-53
2022/10/30 08:24:36;;;;;;;70.25;66.45;;;;;;;15.94;74.12;101361.28;5011172;28;104614;-53
2022/10/30 08:27:03;;;;;;;73.00;68.97;;;;;;;15.95;73.82;101362.91;5004103;28;102092;-53
2022/10/30 08:29:33;;;;;;;63.85;60.40;;;;;;;15.93;74.45;101365.09;5025329;27;102255;-53
2022/10/30 08:32:00;;;;;;;76.82;72.68;;;;;;;15.94;74.50;101358.53;5012901;27;102359;-53
2022/10/30 08:34:31;;;;;;;70.30;66.53;;;;;;;15.93;74.63;101356.06;5017069;28;104144;-53
2022/10/30 08:36:58;;;;;;;71.40;67.40;;;;;;;15.94;74.31;101347.56;5021050;28;102141;-53
2022/10/30 08:39:29;;;;;;;67.20;63.55;;;;;;;15.93;74.26;101351.38;5007383;28;103167;-52
2022/10/30 08:41:58;;;;;;;64.85;61.22;;;;;;;15.94;73.85;101360.44;5007094;28;102319;-53
2022/10/30 08:44:26;;;;;;;63.80;60.25;;;;;;;15.94;74.49;101357.69;5006073;28;103903;-52
2022/10/30 08:46:52;;;;;;;73.38;69.32;;;;;;;15.94;74.34;101360.44;5009399;28;102401;-53
2022/10/30 08:49:19;;;;;;;70.22;66.45;;;;;;;15.93;74.25;101362.38;4999804;28;102126;-53
2022/10/30 08:51:45;;;;;;;75.13;70.82;;;;;;;15.94;74.28;101361.28;5009493;28;102146;-53
2022/10/30 08:54:12;;;;;;;70.97;67.03;;;;;;;15.95;74.03;101362.09;5007889;28;103987;-53
2022/10/30 08:56:40;;;;;;;70.32;66.30;;;;;;;15.95;74.39;101359.34;5014749;28;102116;-53
2022/10/30 08:59:08;;;;;;;73.78;69.63;;;;;;;15.93;74.43;101354.13;5010320;28;102205;-53
2022/10/30 09:01:35;;;;;;;66.03;62.45;;;;;;;15.92;74.24;101349.75;5014504;28;102697;-53
2022/10/30 09:04:02;;;;;;;72.00;68.00;;;;;;;15.94;74.07;101344.81;5009509;28;103586;-53
2022/10/30 09:06:29;;;;;;;70.20;66.32;;;;;;;15.95;74.51;101360.16;5011595;28;102553;-53
2022/10/30 09:08:56;;;;;;;65.97;62.28;;;;;;;15.95;74.05;101359.34;5001075;28;102158;-53
2022/10/30 09:11:22;;;;;;;71.25;67.38;;;;;;;15.95;74.30;101356.59;4999553;28;102250;-54
2022/10/30 09:13:52;;;;;;;68.57;64.70;;;;;;;15.95;74.19;101362.09;5000444;28;103908;-53
2022/10/30 09:16:18;;;;;;;73.03;69.03;;;;;;;15.96;74.02;101356.28;4996231;28;103884;-53
2022/10/30 09:18:46;;;;;;;60.67;57.07;;;;;;;15.96;74.50;101353.56;5001769;28;104174;-53
2022/10/30 09:21:14;;;;;;;70.15;66.32;;;;;;;15.95;74.37;101346.44;5009914;28;102576;-53
2022/10/30 09:23:42;;;;;;;72.72;68.63;;;;;;;15.95;74.12;101360.16;5014863;28;104126;-54
2022/10/30 09:26:18;;;;;;;62.28;58.65;;;;;;;15.97;74.43;101343.38;5069544;27;102036;-53
2022/10/30 09:28:46;;;;;;;65.80;62.28;;;;;;;15.96;74.65;101337.06;5055455;27;102449;-53
2022/10/30 09:31:13;;;;;;;74.25;70.15;;;;;;;15.96;74.37;101337.06;5051771;27;104077;-53
2022/10/30 09:33:39;;;;;;;74.57;70.38;;;;;;;15.97;74.54;101332.41;5042835;27;102016;-53
2022/10/30 09:36:06;;;;;;;74.95;70.90;;;;;;;15.98;74.51;101328.56;5042978;27;102101;-54
2022/10/30 09:38:33;;;;;;;74.18;69.80;;;;;;;15.98;73.72;101318.41;5021803;28;103963;-71
2022/10/30 09:41:19;;;;;;;73.68;68.80;;;;;;;16.01;73.82;101311.47;5012758;28;104093;-68
2022/10/30 09:44:00;;;;;;;70.07;65.35;;;;;;;16.00;74.04;101299.69;5006318;28;102531;-51
2022/10/30 09:46:40;;;;;;;73.25;68.63;;;;;;;16.01;73.76;101301.34;5011615;28;103147;-50
2022/10/30 09:49:58;;;;;;;71.95;65.72;;;;;;;16.06;73.14;101287.53;5023320;27;103824;-49
2022/10/30 09:52:29;;;;;;;65.93;61.40;;;;;;;16.06;73.25;101289.47;4988477;27;103913;-50
2022/10/30 09:55:23;;;;;;;65.30;60.95;;;;;;;16.05;73.52;101288.66;5025676;27;102549;-49
2022/10/30 09:57:58;;;;;;;64.85;60.15;;;;;;;16.08;73.08;101296.31;5018162;27;102413;-51
2022/10/30 10:00:33;;;;;;;67.47;62.30;;;;;;;16.08;72.49;101295.47;5021839;28;102843;-51
2022/10/30 10:03:16;;;;;;;63.90;59.65;;;;;;;16.05;72.50;101296.91;5014955;27;104210;-51
2022/10/30 10:05:47;;;;;;;67.35;62.90;;;;;;;16.07;72.67;101302.09;5024886;28;103568;-50
2022/10/30 10:08:20;;;;;;;75.93;71.15;;;;;;;16.05;73.29;101294.16;5020717;27;102193;-50
2022/10/30 10:10:51;;;;;;;66.15;61.92;;;;;;;16.04;73.15;101298.00;5016191;28;102897;-51
2022/10/30 10:13:28;;;;;;;67.30;62.63;;;;;;;16.03;73.25;101296.38;5016638;28;104104;-50
2022/10/30 10:16:01;;;;;;;66.35;62.40;;;;;;;16.04;73.45;101288.94;5023981;27;102299;-50
2022/10/30 10:18:34;;;;;;;72.35;67.85;;;;;;;16.03;73.41;101288.13;5026029;27;102306;-51
2022/10/30 10:21:09;;;;;;;66.95;62.83;;;;;;;16.03;73.44;101288.13;5026018;27;102129;-51
2022/10/30 10:23:46;;;;;;;72.65;68.15;;;;;;;16.06;73.97;101275.75;5029730;27;103903;-51
2022/10/30 10:26:26;;;;;;;68.18;63.67;;;;;;;16.05;73.71;101280.44;5027150;28;102488;-51
2022/10/30 10:29:07;;;;;;;70.03;65.47;;;;;;;16.06;73.54;101276.56;5028716;27;102033;-51
2022/10/30 10:31:45;;;;;;;64.63;60.55;;;;;;;16.06;73.61;101279.31;5014678;28;102700;-51
2022/10/30 10:34:37;;;;;;;69.85;65.53;;;;;;;16.07;73.70;101285.59;5020458;27;104089;-51
2022/10/30 10:37:15;;;;;;;66.75;62.63;;;;;;;16.06;73.93;101273.81;5020328;28;102254;-51
2022/10/30 10:40:06;;;;;;;62.40;58.43;;;;;;;16.05;73.96;101280.44;5005926;28;102113;-55
2022/10/30 10:42:40;;;;;;;66.45;62.58;;;;;;;16.05;73.82;101283.16;5001107;28;102062;-51
2022/10/30 10:45:23;;;;;;;68.20;64.22;;;;;;;16.05;74.28;101285.91;5011775;28;103915;-51
2022/10/30 10:48:19;;;;;;;70.68;66.55;;;;;;;16.05;74.13;101280.44;5000028;28;101975;-50
2022/10/30 10:50:55;;;;;;;68.18;64.15;;;;;;;16.04;73.83;101284.25;5014788;28;102079;-51
2022/10/30 10:53:29;;;;;;;69.75;65.35;;;;;;;16.07;74.28;101274.63;5004068;28;102166;-51
2022/10/30 10:55:59;;;;;;;70.22;66.03;;;;;;;16.07;73.69;101288.34;5006295;28;103932;-51
2022/10/30 10:58:31;;;;;;;65.93;62.08;;;;;;;16.06;74.12;101282.06;5010197;28;102580;-51
2022/10/30 11:00:58;;;;;;;69.57;65.45;;;;;;;16.07;74.08;101282.88;5007649;28;102028;-51
2022/10/30 11:03:34;;;;;;;72.55;68.28;;;;;;;16.07;73.83;101271.88;5020644;28;102169;-51
2022/10/30 11:06:18;;;;;;;68.70;64.47;;;;;;;16.05;73.99;101274.94;5012826;28;103987;-51
2022/10/30 11:08:46;;;;;;;68.57;64.53;;;;;;;16.07;74.03;101274.63;5005245;28;102236;-51
2022/10/30 11:11:13;;;;;;;68.95;64.90;;;;;;;16.07;74.25;101278.19;4998960;28;102173;-51
2022/10/30 11:13:42;;;;;;;69.65;65.60;;;;;;;16.07;74.03;101267.19;5004934;28;102321;-52